Time;durP1;ratioP1;P1;durP2;ratioP2;P2;SDS_P1;SDS_P2;PMS_P1;PMS_P2;Temp;Humidity;BMP_temperature;BMP_pressure;BME280_temperature;BME280_humidity;BME280_pressure;Samples;Min_cycle;Max_cycle;Signal;HPM_P1;HPM_P2
2022/08/24 00:01:31;;;;;;;;;;;20.80;82.80;;;;;;5074802;28;19945;-96
2022/08/24 00:03:58;;;;;;;;;;;20.90;82.80;;;;;;5077820;28;19966;-96
2022/08/24 00:06:24;;;;;;;;;;;20.80;83.30;;;;;;5077627;28;19938;-96
2022/08/24 00:08:51;;;;;;;;;;;20.70;83.80;;;;;;5077335;28;19980;-96
2022/08/24 00:11:17;;;;;;;;;;;20.70;84.00;;;;;;5077374;28;19971;-96
2022/08/24 00:13:43;;;;;;;;;;;20.70;84.60;;;;;;5077940;28;19947;-96
2022/08/24 00:16:09;;;;;;;;;;;20.80;84.50;;;;;;5077539;28;20035;-96
2022/08/24 00:18:35;;;;;;;;;;;20.80;84.10;;;;;;5077937;28;19936;-96
2022/08/24 00:21:01;;;;;;;;;;;20.80;84.00;;;;;;5077820;28;19940;-96
2022/08/24 00:23:27;;;;;;;;;;;20.80;83.60;;;;;;5077679;28;19937;-96
2022/08/24 00:25:52;;;;;;;;;;;20.80;82.70;;;;;;5077722;28;20312;-96
2022/08/24 00:28:18;;;;;;;;;;;20.90;82.70;;;;;;5078346;28;19935;-95
2022/08/24 00:30:43;;;;;;;;;;;20.80;82.70;;;;;;5077050;28;20386;-95
2022/08/24 00:33:09;;;;;;;;;;;20.80;83.40;;;;;;5077874;28;19954;-96
2022/08/24 00:35:35;;;;;;;;;;;20.70;83.70;;;;;;5077696;28;19943;-96
2022/08/24 00:38:00;;;;;;;;;;;20.70;83.80;;;;;;5059406;28;20439;-96
2022/08/24 00:40:28;;;;;;;;;;;20.70;83.40;;;;;;5078593;28;19948;-96
2022/08/24 00:42:55;;;;;;;;;;;20.60;83.00;;;;;;5078553;28;19964;-96
2022/08/24 00:45:23;;;;;;;;;;;20.60;83.00;;;;;;5060222;28;20411;-95
2022/08/24 00:47:50;;;;;;;;;;;20.50;83.00;;;;;;5078755;28;19986;-95
2022/08/24 00:50:22;;;;;;;;;;;20.60;82.80;;;;;;5077753;28;19949;-95
2022/08/24 00:52:49;;;;;;;;;;;20.50;83.30;;;;;;5077908;28;20007;-96
2022/08/24 00:55:17;;;;;;;;;;;20.40;83.80;;;;;;5060089;28;20043;-96
2022/08/24 00:57:45;;;;;;;;;;;20.50;83.70;;;;;;5077824;28;19937;-96
2022/08/24 01:00:14;;;;;;;;;;;20.40;82.90;;;;;;5078227;28;19956;-96
2022/08/24 01:02:42;;;;;;;;;;;20.40;83.40;;;;;;5077752;28;20027;-96
2022/08/24 01:05:09;;;;;;;;;;;20.30;84.30;;;;;;5078670;28;19947;-96
2022/08/24 01:07:35;;;;;;;;;;;20.20;84.30;;;;;;5078167;28;20018;-96
2022/08/24 01:10:03;;;;;;;;;;;20.20;84.30;;;;;;5078035;28;19940;-96
2022/08/24 01:12:30;;;;;;;;;;;20.30;84.20;;;;;;5077446;28;19972;-96
2022/08/24 01:14:58;;;;;;;;;;;20.30;83.40;;;;;;5077241;28;19981;-96
2022/08/24 01:20:08;;;;;;;;;;;20.40;82.90;;;;;;5078047;28;19946;-96
2022/08/24 01:22:53;;;;;;;;;;;20.40;83.00;;;;;;5077913;28;20398;-96
2022/08/24 01:25:19;;;;;;;;;;;20.30;82.60;;;;;;5078074;28;19972;-96
2022/08/24 01:27:46;;;;;;;;;;;20.40;82.40;;;;;;5078071;28;19995;-96
2022/08/24 01:30:12;;;;;;;;;;;20.30;83.20;;;;;;5077615;28;20150;-96
2022/08/24 01:32:38;;;;;;;;;;;20.10;84.20;;;;;;5077333;28;19966;-96
2022/08/24 01:35:04;;;;;;;;;;;19.90;85.00;;;;;;5076900;28;19939;-96
2022/08/24 01:37:31;;;;;;;;;;;19.80;85.40;;;;;;5077642;28;19952;-96
2022/08/24 01:39:59;;;;;;;;;;;19.80;85.90;;;;;;5077491;28;19996;-96
2022/08/24 01:42:25;;;;;;;;;;;19.80;85.90;;;;;;5078090;28;19941;-96
2022/08/24 01:44:52;;;;;;;;;;;19.80;85.80;;;;;;5078279;28;19943;-95
2022/08/24 01:47:17;;;;;;;;;;;19.80;86.20;;;;;;5078224;28;19948;-96
2022/08/24 01:49:45;;;;;;;;;;;19.80;86.70;;;;;;5077299;28;19938;-96
2022/08/24 01:52:12;;;;;;;;;;;19.90;86.70;;;;;;5078103;28;19955;-96
2022/08/24 01:54:39;;;;;;;;;;;19.90;86.30;;;;;;5059912;28;19989;-95
2022/08/24 01:57:05;;;;;;;;;;;19.90;86.30;;;;;;5077324;28;20007;-96
2022/08/24 01:59:30;;;;;;;;;;;19.90;86.40;;;;;;5076938;28;19976;-96
2022/08/24 02:01:59;;;;;;;;;;;19.90;86.50;;;;;;5077416;28;20374;-96
2022/08/24 02:04:25;;;;;;;;;;;19.90;86.50;;;;;;5077805;28;20016;-96
2022/08/24 02:06:50;;;;;;;;;;;19.90;86.20;;;;;;5059555;28;20410;-96
2022/08/24 02:09:16;;;;;;;;;;;19.90;85.70;;;;;;5058531;28;19978;-96
2022/08/24 02:11:42;;;;;;;;;;;19.80;85.60;;;;;;5076607;28;20022;-96
2022/08/24 02:14:07;;;;;;;;;;;19.80;85.90;;;;;;5076530;28;19947;-96
2022/08/24 02:16:33;;;;;;;;;;;19.80;85.80;;;;;;5077049;28;20378;-95
2022/08/24 02:18:58;;;;;;;;;;;19.70;86.10;;;;;;5058763;28;19950;-96
2022/08/24 02:21:24;;;;;;;;;;;19.60;85.90;;;;;;5076271;28;19939;-96
2022/08/24 02:23:50;;;;;;;;;;;19.60;85.50;;;;;;5075668;28;19941;-95
2022/08/24 02:26:16;;;;;;;;;;;19.60;85.60;;;;;;5074784;28;19942;-96
2022/08/24 02:28:42;;;;;;;;;;;19.50;85.20;;;;;;5075750;28;19946;-95
2022/08/24 02:31:08;;;;;;;;;;;19.50;84.80;;;;;;5075277;28;19938;-96
2022/08/24 02:33:34;;;;;;;;;;;19.40;84.60;;;;;;5075333;28;19955;-95
2022/08/24 02:36:00;;;;;;;;;;;19.40;84.70;;;;;;5057126;28;19981;-96
2022/08/24 02:38:26;;;;;;;;;;;19.40;85.30;;;;;;5075197;28;19942;-95
2022/08/24 02:40:51;;;;;;;;;;;19.30;85.30;;;;;;5075058;28;20372;-96
2022/08/24 02:43:17;;;;;;;;;;;19.30;85.70;;;;;;5075551;28;19943;-96
2022/08/24 02:45:43;;;;;;;;;;;19.40;85.80;;;;;;5074938;28;19939;-96
2022/08/24 02:48:12;;;;;;;;;;;19.40;85.90;;;;;;5056882;28;19992;-95
2022/08/24 02:50:42;;;;;;;;;;;19.40;85.80;;;;;;5075074;28;20025;-96
2022/08/24 02:53:08;;;;;;;;;;;19.40;85.60;;;;;;5074934;28;19956;-96
2022/08/24 02:55:34;;;;;;;;;;;19.30;85.80;;;;;;5075055;28;19943;-96
2022/08/24 02:58:00;;;;;;;;;;;19.30;86.00;;;;;;5074493;28;19942;-96
2022/08/24 03:00:26;;;;;;;;;;;19.30;86.00;;;;;;5056895;28;19939;-96
2022/08/24 03:02:53;;;;;;;;;;;19.40;85.80;;;;;;5074928;28;19940;-96
2022/08/24 03:05:19;;;;;;;;;;;19.30;85.80;;;;;;5074788;28;20454;-96
2022/08/24 03:07:44;;;;;;;;;;;19.30;85.90;;;;;;5075204;28;19970;-95
2022/08/24 03:10:10;;;;;;;;;;;19.30;86.00;;;;;;5074699;28;19976;-96
2022/08/24 03:12:35;;;;;;;;;;;19.40;86.00;;;;;;5074737;28;19978;-96
2022/08/24 03:15:02;;;;;;;;;;;19.40;85.70;;;;;;5056750;28;19980;-96
2022/08/24 03:17:32;;;;;;;;;;;19.50;85.60;;;;;;5075176;28;19941;-96
2022/08/24 03:19:59;;;;;;;;;;;19.40;85.50;;;;;;5074666;28;19972;-96
2022/08/24 03:22:25;;;;;;;;;;;19.40;85.50;;;;;;5074551;28;19942;-95
2022/08/24 03:24:50;;;;;;;;;;;19.30;85.50;;;;;;5074341;28;19943;-96
2022/08/24 03:27:16;;;;;;;;;;;19.30;85.60;;;;;;5074735;28;19945;-96
2022/08/24 03:29:42;;;;;;;;;;;19.30;85.60;;;;;;5056464;28;20331;-96
2022/08/24 03:32:08;;;;;;;;;;;19.30;85.70;;;;;;5075232;28;20051;-95
2022/08/24 03:34:34;;;;;;;;;;;19.30;85.60;;;;;;5075051;28;19939;-96
2022/08/24 03:36:59;;;;;;;;;;;19.30;85.70;;;;;;5075920;28;19957;-96
2022/08/24 03:39:25;;;;;;;;;;;19.30;85.60;;;;;;5060449;28;19968;-96
2022/08/24 03:41:50;;;;;;;;;;;19.10;86.20;;;;;;5079570;28;19952;-96
2022/08/24 03:44:16;;;;;;;;;;;19.10;86.40;;;;;;5079404;28;19980;-96
2022/08/24 03:46:41;;;;;;;;;;;19.10;86.50;;;;;;5079718;28;19944;-96
2022/08/24 03:49:08;;;;;;;;;;;19.10;86.60;;;;;;5079484;28;20351;-96
2022/08/24 03:51:35;;;;;;;;;;;19.00;86.90;;;;;;5079077;28;20026;-94
2022/08/24 03:54:01;;;;;;;;;;;19.00;87.30;;;;;;5078666;28;19940;-96
2022/08/24 03:56:27;;;;;;;;;;;18.90;87.70;;;;;;5077884;28;19939;-96
2022/08/24 03:58:52;;;;;;;;;;;19.00;87.20;;;;;;5077689;28;19942;-96
2022/08/24 04:01:18;;;;;;;;;;;18.90;87.20;;;;;;5077827;28;19989;-96
2022/08/24 04:03:45;;;;;;;;;;;18.90;87.00;;;;;;5077250;28;19942;-95
2022/08/24 04:06:11;;;;;;;;;;;18.80;87.10;;;;;;5077545;28;19939;-96
2022/08/24 04:08:37;;;;;;;;;;;18.80;87.30;;;;;;5077455;28;20006;-96
2022/08/24 04:11:03;;;;;;;;;;;18.80;87.40;;;;;;5077173;28;19942;-96
2022/08/24 04:13:32;;;;;;;;;;;18.80;87.60;;;;;;5077567;28;19965;-95
2022/08/24 04:16:03;;;;;;;;;;;18.80;87.90;;;;;;5077132;28;19989;-96
2022/08/24 04:18:28;;;;;;;;;;;18.90;88.20;;;;;;5077407;28;19934;-96
2022/08/24 04:20:54;;;;;;;;;;;18.90;88.10;;;;;;5076907;28;20501;-96
2022/08/24 04:23:19;;;;;;;;;;;19.00;88.00;;;;;;5076965;28;19999;-95
2022/08/24 04:25:46;;;;;;;;;;;19.00;88.00;;;;;;5076661;28;20344;-96
2022/08/24 04:28:13;;;;;;;;;;;19.10;88.00;;;;;;5076534;28;19939;-96
2022/08/24 04:30:40;;;;;;;;;;;19.20;87.60;;;;;;5076873;28;19955;-96
2022/08/24 04:33:06;;;;;;;;;;;19.30;87.20;;;;;;5076632;28;19972;-96
2022/08/24 04:35:35;;;;;;;;;;;19.30;87.20;;;;;;5077210;28;19943;-96
2022/08/24 04:38:00;;;;;;;;;;;19.10;87.60;;;;;;5077430;28;19948;-96
2022/08/24 04:40:26;;;;;;;;;;;19.20;87.10;;;;;;5077267;28;19940;-96
2022/08/24 04:42:51;;;;;;;;;;;19.30;86.70;;;;;;5077067;28;20483;-96
2022/08/24 04:45:17;;;;;;;;;;;19.30;86.70;;;;;;5077390;28;19943;-96
2022/08/24 04:47:43;;;;;;;;;;;19.30;86.60;;;;;;5076721;28;19962;-96
2022/08/24 04:50:09;;;;;;;;;;;19.30;86.50;;;;;;5075786;28;19949;-96
2022/08/24 04:52:37;;;;;;;;;;;19.20;86.70;;;;;;5076538;28;20054;-96
2022/08/24 04:55:03;;;;;;;;;;;19.20;86.80;;;;;;5076561;28;20035;-96
2022/08/24 04:57:28;;;;;;;;;;;19.10;86.90;;;;;;5076278;28;20033;-96
2022/08/24 04:59:55;;;;;;;;;;;19.10;87.20;;;;;;5076157;28;20408;-96
2022/08/24 05:02:21;;;;;;;;;;;19.10;87.40;;;;;;5076713;28;19933;-96
2022/08/24 05:04:47;;;;;;;;;;;19.10;87.30;;;;;;5076246;28;20280;-95
2022/08/24 05:07:12;;;;;;;;;;;19.20;87.30;;;;;;5076322;28;19940;-96
2022/08/24 05:09:38;;;;;;;;;;;19.30;87.00;;;;;;5076076;28;20342;-96
2022/08/24 05:12:03;;;;;;;;;;;19.30;87.00;;;;;;5051493;23;19981;-96
2022/08/24 05:14:29;;;;;;;;;;;19.30;86.80;;;;;;5016109;28;20381;-96
2022/08/24 05:16:55;;;;;;;;;;;19.40;86.70;;;;;;5015299;28;19965;-96
2022/08/24 05:19:21;;;;;;;;;;;19.50;86.40;;;;;;5016183;28;19935;-96
2022/08/24 05:21:47;;;;;;;;;;;19.60;86.40;;;;;;5016463;28;19939;-96
2022/08/24 05:24:13;;;;;;;;;;;19.70;86.00;;;;;;5015679;28;20464;-96
2022/08/24 05:26:39;;;;;;;;;;;19.80;85.50;;;;;;5016415;28;20364;-95
2022/08/24 05:29:05;;;;;;;;;;;19.90;85.30;;;;;;5015943;28;20417;-96
2022/08/24 05:31:32;;;;;;;;;;;19.80;85.30;;;;;;5031930;28;20411;-96
2022/08/24 05:33:58;;;;;;;;;;;19.80;85.50;;;;;;5034498;28;19937;-96
2022/08/24 05:36:25;;;;;;;;;;;19.70;86.20;;;;;;5035022;28;19967;-96
2022/08/24 05:38:53;;;;;;;;;;;19.80;86.30;;;;;;5034111;28;19941;-96
2022/08/24 05:41:20;;;;;;;;;;;19.90;86.30;;;;;;5031398;28;19953;-96
2022/08/24 05:43:46;;;;;;;;;;;20.10;86.80;;;;;;5032939;28;19945;-96
2022/08/24 05:46:12;;;;;;;;;;;20.30;86.60;;;;;;5030721;28;19981;-96
2022/08/24 05:48:38;;;;;;;;;;;20.40;86.10;;;;;;5031211;28;19943;-96
2022/08/24 05:51:06;;;;;;;;;;;20.40;85.90;;;;;;5033337;28;19942;-96
2022/08/24 05:53:33;;;;;;;;;;;20.50;85.90;;;;;;5034047;28;19959;-96
2022/08/24 05:56:03;;;;;;;;;;;20.50;85.70;;;;;;5035157;28;19955;-96
2022/08/24 05:58:30;;;;;;;;;;;20.60;85.40;;;;;;5037525;28;19933;-96
2022/08/24 06:00:56;;;;;;;;;;;20.70;85.30;;;;;;5034345;28;19947;-96
2022/08/24 06:03:23;;;;;;;;;;;20.80;85.10;;;;;;5034605;28;19940;-96
2022/08/24 06:05:53;;;;;;;;;;;20.80;84.60;;;;;;5033974;28;20189;-96
2022/08/24 06:08:20;;;;;;;;;;;20.90;84.00;;;;;;5034525;28;19931;-96
2022/08/24 06:10:47;;;;;;;;;;;21.00;83.90;;;;;;5033722;28;19943;-96
2022/08/24 06:13:13;;;;;;;;;;;21.10;83.20;;;;;;5074435;28;20027;-96
2022/08/24 06:15:40;;;;;;;;;;;21.20;81.90;;;;;;5057220;28;19943;-96
2022/08/24 06:18:06;;;;;;;;;;;21.30;80.60;;;;;;5073548;28;19975;-96
2022/08/24 06:20:36;;;;;;;;;;;21.40;79.90;;;;;;5054851;28;19946;-96
2022/08/24 06:23:02;;;;;;;;;;;21.60;78.60;;;;;;5055777;28;19950;-96
2022/08/24 06:28:12;;;;;;;;;;;22.00;76.50;;;;;;5065896;28;19944;-96
2022/08/24 06:30:38;;;;;;;;;;;22.40;74.20;;;;;;5068253;28;19949;-96
2022/08/24 06:33:04;;;;;;;;;;;22.70;72.90;;;;;;5051263;28;20072;-96
2022/08/24 06:35:30;;;;;;;;;;;22.80;73.20;;;;;;5050604;28;20011;-95
2022/08/24 06:37:56;;;;;;;;;;;23.00;72.00;;;;;;5050722;28;19950;-96
2022/08/24 06:40:23;;;;;;;;;;;22.90;72.30;;;;;;5066652;28;19944;-96
2022/08/24 06:42:49;;;;;;;;;;;23.00;72.30;;;;;;5062407;28;19984;-96
2022/08/24 06:45:14;;;;;;;;;;;23.00;72.00;;;;;;5061578;28;19937;-96
2022/08/24 06:47:40;;;;;;;;;;;23.00;72.00;;;;;;5044573;28;19945;-96
2022/08/24 06:50:07;;;;;;;;;;;23.00;71.40;;;;;;5059728;28;19946;-96
2022/08/24 06:52:38;;;;;;;;;;;23.10;71.80;;;;;;5060685;28;19962;-96
2022/08/24 06:55:04;;;;;;;;;;;23.10;72.10;;;;;;5059154;28;20387;-96
2022/08/24 06:57:30;;;;;;;;;;;23.10;72.50;;;;;;5039892;28;20052;-96
2022/08/24 06:59:56;;;;;;;;;;;23.10;72.70;;;;;;5059020;28;19947;-96
2022/08/24 07:02:22;;;;;;;;;;;23.20;73.00;;;;;;5058676;28;19939;-96
2022/08/24 07:04:48;;;;;;;;;;;23.20;72.70;;;;;;5059984;28;20343;-96
2022/08/24 07:07:13;;;;;;;;;;;23.20;72.50;;;;;;5043437;28;19954;-96
2022/08/24 07:09:39;;;;;;;;;;;23.30;72.50;;;;;;5061847;28;19949;-96
2022/08/24 07:12:05;;;;;;;;;;;23.30;72.40;;;;;;5043298;28;19986;-96
2022/08/24 07:14:30;;;;;;;;;;;23.40;71.60;;;;;;5063841;28;19940;-96
2022/08/24 07:16:57;;;;;;;;;;;23.50;71.20;;;;;;5046087;28;19948;-96
2022/08/24 07:19:25;;;;;;;;;;;23.60;69.70;;;;;;5074084;28;19947;-96
2022/08/24 07:21:56;;;;;;;;;;;23.80;69.60;;;;;;5058470;28;19945;-96
2022/08/24 07:24:26;;;;;;;;;;;23.90;69.10;;;;;;5057079;28;19951;-96
2022/08/24 07:26:56;;;;;;;;;;;24.10;69.50;;;;;;5056049;28;20031;-96
2022/08/24 07:29:22;;;;;;;;;;;24.20;68.00;;;;;;5073764;28;19938;-96
2022/08/24 07:31:49;;;;;;;;;;;24.30;67.80;;;;;;5039030;28;19975;-96
2022/08/24 07:34:15;;;;;;;;;;;24.40;67.30;;;;;;5056216;28;19922;-96
2022/08/24 07:36:41;;;;;;;;;;;24.50;67.30;;;;;;5055516;28;19988;-96
2022/08/24 07:39:08;;;;;;;;;;;24.50;67.60;;;;;;5073309;28;19950;-96
2022/08/24 07:41:39;;;;;;;;;;;24.50;67.70;;;;;;5072711;28;19943;-96
2022/08/24 07:44:06;;;;;;;;;;;24.50;67.20;;;;;;5054726;28;19943;-95
2022/08/24 07:46:32;;;;;;;;;;;24.60;67.50;;;;;;5073249;28;19946;-96
2022/08/24 07:48:59;;;;;;;;;;;24.60;67.50;;;;;;5057073;28;19941;-96
2022/08/24 07:51:28;;;;;;;;;;;24.70;67.40;;;;;;5057163;28;19941;-96
2022/08/24 07:53:55;;;;;;;;;;;24.70;65.60;;;;;;5075683;28;19952;-96
2022/08/24 07:56:22;;;;;;;;;;;24.70;66.50;;;;;;5057871;28;19943;-96
2022/08/24 07:58:51;;;;;;;;;;;24.80;67.20;;;;;;5055914;28;19934;-96
2022/08/24 08:01:20;;;;;;;;;;;24.90;67.60;;;;;;5056221;28;20420;-96
2022/08/24 08:03:46;;;;;;;;;;;24.90;67.80;;;;;;5073942;28;19949;-96
2022/08/24 08:06:12;;;;;;;;;;;25.00;66.60;;;;;;5056018;28;19999;-96
2022/08/24 08:08:40;;;;;;;;;;;25.10;66.70;;;;;;5055629;28;20479;-96
2022/08/24 08:11:14;;;;;;;;;;;25.10;67.20;;;;;;5055916;28;19957;-96
2022/08/24 08:13:40;;;;;;;;;;;25.10;66.30;;;;;;5040494;28;19981;-96
2022/08/24 08:16:09;;;;;;;;;;;25.00;65.10;;;;;;5055471;28;19966;-96
2022/08/24 08:18:35;;;;;;;;;;;25.20;66.10;;;;;;5054708;28;20055;-96
2022/08/24 08:21:04;;;;;;;;;;;25.20;64.90;;;;;;5070719;28;19956;-96
2022/08/24 08:26:21;;;;;;;;;;;25.50;63.30;;;;;;5073072;28;19990;-96
2022/08/24 08:28:47;;;;;;;;;;;25.50;62.10;;;;;;5068134;28;19942;-96
2022/08/24 08:31:13;;;;;;;;;;;25.50;62.40;;;;;;5060743;28;19951;-96
2022/08/24 08:33:42;;;;;;;;;;;25.50;63.80;;;;;;5073994;28;19995;-96
2022/08/24 08:36:17;;;;;;;;;;;25.60;62.80;;;;;;5079797;28;19963;-96
2022/08/24 08:38:43;;;;;;;;;;;25.70;62.20;;;;;;5061468;28;20363;-96
2022/08/24 08:41:21;;;;;;;;;;;25.70;60.00;;;;;;5057492;28;19946;-96
2022/08/24 08:43:56;;;;;;;;;;;25.70;61.00;;;;;;5055575;28;19946;-96
2022/08/24 08:46:26;;;;;;;;;;;25.70;60.30;;;;;;5071762;28;19938;-96
2022/08/24 08:48:55;;;;;;;;;;;25.70;60.10;;;;;;5072770;28;19936;-96
2022/08/24 08:51:20;;;;;;;;;;;25.80;60.50;;;;;;5055505;28;19967;-96
2022/08/24 08:54:05;;;;;;;;;;;25.90;61.70;;;;;;5072033;28;19994;-96
2022/08/24 08:56:41;;;;;;;;;;;26.00;61.50;;;;;;5059963;28;19952;-96
2022/08/24 08:59:33;;;;;;;;;;;26.10;60.90;;;;;;5074976;28;19945;-96
2022/08/24 09:02:18;;;;;;;;;;;26.10;59.50;;;;;;5074577;28;19944;-96
2022/08/24 09:04:55;;;;;;;;;;;26.20;60.80;;;;;;5058559;28;19979;-96
2022/08/24 09:07:40;;;;;;;;;;;26.20;58.80;;;;;;5056835;28;19947;-96
2022/08/24 09:10:06;;;;;;;;;;;26.20;58.40;;;;;;5058867;28;19933;-96
2022/08/24 09:12:38;;;;;;;;;;;26.20;59.70;;;;;;5060416;28;19980;-96
2022/08/24 09:15:42;;;;;;;;;;;26.40;60.10;;;;;;5072559;28;19929;-96
2022/08/24 09:18:17;;;;;;;;;;;26.50;58.80;;;;;;5017825;28;19947;-96
2022/08/24 09:21:10;;;;;;;;;;;26.60;58.10;;;;;;5052807;28;19954;-96
2022/08/24 09:24:01;;;;;;;;;;;26.50;57.30;;;;;;5061032;28;19920;-96
2022/08/24 09:26:32;;;;;;;;;;;26.30;57.00;;;;;;5061555;28;19949;-96
2022/08/24 09:29:17;;;;;;;;;;;26.30;57.50;;;;;;5061219;28;19940;-96
2022/08/24 09:32:02;;;;;;;;;;;26.50;58.30;;;;;;5061470;28;19993;-96
2022/08/24 09:34:33;;;;;;;;;;;26.50;56.50;;;;;;5059520;28;19935;-96
2022/08/24 09:37:21;;;;;;;;;;;26.50;56.70;;;;;;5061151;28;19967;-96
2022/08/24 09:39:50;;;;;;;;;;;26.50;58.10;;;;;;5061372;28;19946;-96
2022/08/24 09:42:22;;;;;;;;;;;26.50;56.10;;;;;;5061679;28;19938;-96
2022/08/24 09:45:07;;;;;;;;;;;26.50;56.60;;;;;;5060963;28;20006;-96
2022/08/24 09:47:47;;;;;;;;;;;26.70;56.60;;;;;;5061729;28;19937;-96
2022/08/24 09:50:13;;;;;;;;;;;26.80;56.80;;;;;;5061356;28;19937;-96
2022/08/24 09:53:04;;;;;;;;;;;26.90;56.90;;;;;;5075582;28;19992;-96
2022/08/24 09:55:40;;;;;;;;;;;27.00;56.90;;;;;;5058708;28;19950;-96
2022/08/24 09:58:40;;;;;;;;;;;27.10;55.70;;;;;;5077549;28;19948;-96
2022/08/24 10:01:25;;;;;;;;;;;27.10;55.30;;;;;;5028140;28;19950;-96
2022/08/24 10:04:07;;;;;;;;;;;27.10;55.00;;;;;;5059847;28;19937;-96
2022/08/24 10:06:52;;;;;;;;;;;27.20;56.70;;;;;;5061091;28;19962;-96
2022/08/24 10:09:43;;;;;;;;;;;27.60;57.00;;;;;;5078267;28;19928;-96
2022/08/24 10:12:15;;;;;;;;;;;27.60;56.40;;;;;;5031702;28;19976;-96
2022/08/24 10:14:42;;;;;;;;;;;27.80;55.60;;;;;;5058469;28;19926;-96
2022/08/24 10:17:17;;;;;;;;;;;28.00;55.30;;;;;;5061150;28;19967;-96
2022/08/24 10:19:54;;;;;;;;;;;27.80;52.30;;;;;;5076973;28;19923;-96
2022/08/24 10:22:39;;;;;;;;;;;27.70;53.50;;;;;;5058718;28;19947;-96
2022/08/24 10:25:20;;;;;;;;;;;27.80;54.30;;;;;;5059606;28;19940;-96
2022/08/24 10:27:46;;;;;;;;;;;27.90;52.00;;;;;;5059397;28;19951;-96
2022/08/24 10:30:31;;;;;;;;;;;27.90;50.90;;;;;;5076611;28;19942;-96
2022/08/24 10:33:10;;;;;;;;;;;27.90;53.50;;;;;;5076827;28;19942;-96
2022/08/24 10:35:45;;;;;;;;;;;28.00;54.20;;;;;;5057271;28;19944;-96
2022/08/24 10:41:18;;;;;;;;;;;28.00;54.30;;;;;;5076396;28;19931;-96
2022/08/24 10:43:57;;;;;;;;;;;28.00;52.20;;;;;;5076358;28;19948;-96
2022/08/24 10:46:38;;;;;;;;;;;28.20;53.50;;;;;;5058859;28;19949;-96
2022/08/24 10:49:23;;;;;;;;;;;28.40;52.60;;;;;;5059162;28;19944;-96
2022/08/24 10:52:11;;;;;;;;;;;28.60;51.40;;;;;;5076746;28;19981;-96
2022/08/24 10:54:38;;;;;;;;;;;28.60;49.80;;;;;;5059889;28;19952;-96
2022/08/24 10:57:08;;;;;;;;;;;28.70;51.30;;;;;;5059299;28;19975;-96
2022/08/24 10:59:34;;;;;;;;;;;28.70;48.50;;;;;;5058941;28;19962;-96
2022/08/24 11:02:27;;;;;;;;;;;28.60;49.20;;;;;;5075989;28;19966;-96
2022/08/24 11:05:08;;;;;;;;;;;28.40;50.30;;;;;;5076152;28;19966;-96
2022/08/24 11:07:34;;;;;;;;;;;28.40;49.90;;;;;;5041174;28;19950;-96
2022/08/24 11:10:06;;;;;;;;;;;28.40;50.10;;;;;;5057829;28;19938;-96
2022/08/24 11:12:38;;;;;;;;;;;28.20;50.30;;;;;;5061307;28;19985;-96
2022/08/24 11:15:19;;;;;;;;;;;28.50;50.70;;;;;;5038702;28;20015;-96
2022/08/24 11:17:56;;;;;;;;;;;28.70;50.00;;;;;;5036292;28;19939;-96
2022/08/24 11:20:33;;;;;;;;;;;28.70;49.20;;;;;;5055266;28;19956;-96
2022/08/24 11:23:20;;;;;;;;;;;28.80;48.50;;;;;;5030749;28;19962;-96
2022/08/24 11:26:10;;;;;;;;;;;29.10;47.70;;;;;;5039888;28;19949;-96
2022/08/24 11:28:39;;;;;;;;;;;29.30;47.40;;;;;;5038327;28;19946;-96
2022/08/24 11:31:19;;;;;;;;;;;29.20;44.50;;;;;;5054845;28;19949;-96
2022/08/24 11:33:55;;;;;;;;;;;29.20;47.10;;;;;;5038143;28;20010;-96
2022/08/24 11:36:30;;;;;;;;;;;29.50;45.50;;;;;;5038464;28;19942;-96
2022/08/24 11:39:11;;;;;;;;;;;29.80;45.80;;;;;;5036241;28;19983;-96
2022/08/24 11:41:47;;;;;;;;;;;30.00;45.00;;;;;;5029228;28;19947;-96
2022/08/24 11:44:27;;;;;;;;;;;30.00;45.00;;;;;;5027757;28;19944;-96
2022/08/24 11:47:06;;;;;;;;;;;30.30;44.90;;;;;;5046215;28;19942;-96
2022/08/24 11:49:48;;;;;;;;;;;30.30;42.10;;;;;;5035066;28;19940;-96
2022/08/24 11:52:20;;;;;;;;;;;30.70;42.80;;;;;;5052988;28;19975;-96
2022/08/24 11:55:02;;;;;;;;;;;30.80;41.60;;;;;;5038673;28;19949;-96
2022/08/24 11:57:35;;;;;;;;;;;30.70;41.40;;;;;;5038044;28;19947;-96
2022/08/24 12:00:22;;;;;;;;;;;30.70;41.30;;;;;;5041659;28;19949;-96
2022/08/24 12:02:54;;;;;;;;;;;30.70;40.90;;;;;;5058074;28;20014;-96
2022/08/24 12:05:41;;;;;;;;;;;30.60;41.60;;;;;;5042242;28;19946;-96
2022/08/24 12:08:29;;;;;;;;;;;30.90;40.90;;;;;;5057797;28;19943;-96
2022/08/24 12:10:58;;;;;;;;;;;31.00;39.50;;;;;;5042777;28;19932;-96
2022/08/24 12:13:43;;;;;;;;;;;31.60;39.70;;;;;;5079906;28;19983;-96
2022/08/24 12:16:10;;;;;;;;;;;32.20;40.60;;;;;;5062411;28;19945;-96
2022/08/24 12:18:49;;;;;;;;;;;32.90;37.90;;;;;;5075495;28;19942;-96
2022/08/24 12:21:22;;;;;;;;;;;33.30;35.30;;;;;;5061290;28;19946;-96
2022/08/24 12:23:57;;;;;;;;;;;33.50;37.10;;;;;;5079445;28;19946;-96
2022/08/24 12:26:45;;;;;;;;;;;33.70;36.00;;;;;;5045904;28;19956;-96
2022/08/24 12:29:27;;;;;;;;;;;33.90;34.90;;;;;;5078925;28;19978;-96
2022/08/24 12:31:59;;;;;;;;;;;33.70;35.90;;;;;;5061715;28;19941;-96
2022/08/24 12:34:36;;;;;;;;;;;33.80;35.40;;;;;;5062214;28;19957;-96
2022/08/24 12:37:09;;;;;;;;;;;34.40;35.20;;;;;;5061725;28;19968;-97
2022/08/24 12:39:39;;;;;;;;;;;34.80;34.70;;;;;;5061809;28;19951;-96
2022/08/24 12:42:39;;;;;;;;;;;35.10;33.50;;;;;;5080168;28;19931;-96
2022/08/24 12:45:10;;;;;;;;;;;35.50;32.30;;;;;;5008644;28;19958;-96
2022/08/24 12:48:03;;;;;;;;;;;35.50;33.00;;;;;;5058941;28;19973;-96
2022/08/24 12:50:33;;;;;;;;;;;35.60;32.20;;;;;;5038325;28;19993;-96
2022/08/24 12:53:25;;;;;;;;;;;36.70;31.20;;;;;;5061632;28;19996;-96
2022/08/24 12:55:56;;;;;;;;;;;37.30;31.20;;;;;;5061515;28;19951;-96
2022/08/24 12:58:26;;;;;;;;;;;38.40;28.30;;;;;;5077502;28;20039;-96
2022/08/24 13:00:54;;;;;;;;;;;38.90;27.80;;;;;;5059781;28;20004;-96
2022/08/24 13:03:25;;;;;;;;;;;39.40;26.00;;;;;;5056262;28;19972;-97
2022/08/24 13:05:57;;;;;;;;;;;39.90;25.00;;;;;;5074473;28;19946;-96
2022/08/24 13:08:43;;;;;;;;;;;40.60;24.30;;;;;;5074004;28;19933;-96
2022/08/24 13:11:29;;;;;;;;;;;41.10;23.70;;;;;;5068756;22;19987;-96
2022/08/24 13:14:13;;;;;;;;;;;41.40;23.30;;;;;;5094231;28;20000;-96
2022/08/24 13:16:48;;;;;;;;;;;41.20;23.90;;;;;;5097131;28;19987;-96
2022/08/24 13:19:30;;;;;;;;;;;42.20;23.50;;;;;;5115616;28;19969;-96
2022/08/24 13:22:08;;;;;;;;;;;42.40;24.00;;;;;;5098364;28;19948;-96
2022/08/24 13:24:34;;;;;;;;;;;43.00;22.20;;;;;;5116476;28;19949;-96
2022/08/24 13:27:10;;;;;;;;;;;44.00;20.60;;;;;;5096613;28;19941;-96
2022/08/24 13:29:38;;;;;;;;;;;43.50;20.40;;;;;;5115323;28;19986;-96
2022/08/24 13:32:07;;;;;;;;;;;43.60;20.40;;;;;;5096124;28;19963;-96
2022/08/24 13:34:39;;;;;;;;;;;41.50;22.20;;;;;;5098134;28;19980;-96
2022/08/24 13:37:19;;;;;;;;;;;40.60;23.40;;;;;;5096930;28;19962;-96
2022/08/24 13:39:54;;;;;;;;;;;40.50;23.60;;;;;;5096717;28;19946;-96
2022/08/24 13:42:40;;;;;;;;;;;40.20;25.40;;;;;;5097654;28;19945;-96
2022/08/24 13:45:25;;;;;;;;;;;40.10;26.40;;;;;;5096957;28;20338;-96
2022/08/24 13:48:17;;;;;;;;;;;40.60;26.20;;;;;;5091479;28;19961;-96
2022/08/24 13:50:58;;;;;;;;;;;39.30;27.40;;;;;;5111331;28;19967;-96
2022/08/24 13:53:45;;;;;;;;;;;38.20;29.20;;;;;;5098860;28;20011;-96
2022/08/24 13:56:23;;;;;;;;;;;38.40;29.70;;;;;;5116096;28;19948;-96
2022/08/24 13:58:49;;;;;;;;;;;39.90;27.20;;;;;;5098244;28;19933;-96
2022/08/24 14:01:21;;;;;;;;;;;40.70;26.90;;;;;;5113555;28;19980;-96
2022/08/24 14:04:11;;;;;;;;;;;38.60;28.30;;;;;;5113604;28;19941;-96
2022/08/24 14:07:06;;;;;;;;;;;37.40;29.70;;;;;;5115123;28;19933;-96
2022/08/24 14:09:52;;;;;;;;;;;37.70;29.90;;;;;;5098201;28;19969;-96
2022/08/24 14:12:37;;;;;;;;;;;38.20;29.80;;;;;;5093652;28;20060;-96
2022/08/24 14:15:28;;;;;;;;;;;39.80;28.30;;;;;;5094445;28;19950;-96
2022/08/24 14:18:12;;;;;;;;;;;38.60;28.80;;;;;;5094296;28;19994;-96
2022/08/24 14:20:57;;;;;;;;;;;38.20;29.80;;;;;;5094892;28;19946;-96
2022/08/24 14:23:42;;;;;;;;;;;39.10;28.10;;;;;;5093870;28;19926;-96
2022/08/24 14:26:27;;;;;;;;;;;39.40;27.90;;;;;;5094946;28;19939;-96
2022/08/24 14:28:54;;;;;;;;;;;39.60;27.30;;;;;;5092723;28;20396;-96
2022/08/24 14:31:26;;;;;;;;;;;39.00;28.20;;;;;;5094324;28;19946;-96
2022/08/24 14:34:06;;;;;;;;;;;38.10;30.60;;;;;;5094393;28;19972;-96
2022/08/24 14:36:48;;;;;;;;;;;36.50;30.80;;;;;;5096323;28;19958;-96
2022/08/24 14:39:31;;;;;;;;;;;36.40;31.50;;;;;;5094944;28;19940;-96
2022/08/24 14:42:17;;;;;;;;;;;37.40;30.90;;;;;;5094277;28;19957;-96
2022/08/24 14:44:43;;;;;;;;;;;38.40;28.80;;;;;;5093313;28;19945;-96
2022/08/24 14:47:12;;;;;;;;;;;38.50;30.00;;;;;;5093997;28;19955;-96
2022/08/24 14:49:57;;;;;;;;;;;38.50;28.80;;;;;;5092630;28;19928;-96
2022/08/24 14:52:29;;;;;;;;;;;37.60;29.60;;;;;;5090379;28;20336;-96